sensor_id;sensor_type;location;lat;lon;timestamp;P1;durP1;ratioP1;P2;durP2;ratioP2
67896;SDS011;54698;48.428;9.964;2022-09-03T00:01:39;6.85;;;1.60;;
67896;SDS011;54698;48.428;9.964;2022-09-03T00:04:13;3.67;;;1.60;;
67896;SDS011;54698;48.428;9.964;2022-09-03T00:06:44;3.75;;;1.60;;
67896;SDS011;54698;48.428;9.964;2022-09-03T00:09:18;4.43;;;1.70;;
67896;SDS011;54698;48.428;9.964;2022-09-03T00:11:50;3.67;;;1.55;;
67896;SDS011;54698;48.428;9.964;2022-09-03T00:14:23;3.55;;;1.50;;
67896;SDS011;54698;48.428;9.964;2022-09-03T00:16:52;4.68;;;2.50;;
67896;SDS011;54698;48.428;9.964;2022-09-03T00:19:23;5.20;;;2.03;;
67896;SDS011;54698;48.428;9.964;2022-09-03T00:21:55;5.00;;;1.73;;
67896;SDS011;54698;48.428;9.964;2022-09-03T00:24:25;5.30;;;1.88;;
67896;SDS011;54698;48.428;9.964;2022-09-03T00:26:59;5.25;;;2.10;;
67896;SDS011;54698;48.428;9.964;2022-09-03T00:29:30;4.00;;;1.70;;
67896;SDS011;54698;48.428;9.964;2022-09-03T00:32:02;5.32;;;1.83;;
67896;SDS011;54698;48.428;9.964;2022-09-03T00:34:39;7.78;;;1.95;;
67896;SDS011;54698;48.428;9.964;2022-09-03T00:37:09;5.10;;;1.80;;
67896;SDS011;54698;48.428;9.964;2022-09-03T00:39:36;3.42;;;1.60;;
67896;SDS011;54698;48.428;9.964;2022-09-03T00:42:06;4.93;;;1.92;;
67896;SDS011;54698;48.428;9.964;2022-09-03T00:45:02;4.07;;;1.50;;
67896;SDS011;54698;48.428;9.964;2022-09-03T00:47:45;4.03;;;1.50;;
67896;SDS011;54698;48.428;9.964;2022-09-03T00:50:27;4.95;;;1.67;;
67896;SDS011;54698;48.428;9.964;2022-09-03T00:53:06;6.35;;;2.30;;
67896;SDS011;54698;48.428;9.964;2022-09-03T00:55:42;4.90;;;1.83;;
67896;SDS011;54698;48.428;9.964;2022-09-03T00:58:18;5.80;;;2.03;;
67896;SDS011;54698;48.428;9.964;2022-09-03T01:03:25;5.53;;;1.40;;
67896;SDS011;54698;48.428;9.964;2022-09-03T01:06:09;4.60;;;1.95;;
67896;SDS011;54698;48.428;9.964;2022-09-03T01:08:46;4.47;;;1.95;;
67896;SDS011;54698;48.428;9.964;2022-09-03T01:11:29;4.47;;;2.03;;
67896;SDS011;54698;48.428;9.964;2022-09-03T01:14:05;4.93;;;2.00;;
67896;SDS011;54698;48.428;9.964;2022-09-03T01:16:41;4.93;;;1.88;;
67896;SDS011;54698;48.428;9.964;2022-09-03T01:19:19;5.15;;;2.08;;
67896;SDS011;54698;48.428;9.964;2022-09-03T01:22:13;7.10;;;2.40;;
67896;SDS011;54698;48.428;9.964;2022-09-03T01:25:00;5.38;;;2.00;;
67896;SDS011;54698;48.428;9.964;2022-09-03T01:27:43;5.43;;;2.10;;
67896;SDS011;54698;48.428;9.964;2022-09-03T01:30:24;4.53;;;1.90;;
67896;SDS011;54698;48.428;9.964;2022-09-03T01:32:52;6.75;;;1.88;;
67896;SDS011;54698;48.428;9.964;2022-09-03T01:35:24;4.40;;;1.98;;
67896;SDS011;54698;48.428;9.964;2022-09-03T01:38:00;5.18;;;2.30;;
67896;SDS011;54698;48.428;9.964;2022-09-03T01:40:41;4.93;;;2.20;;
67896;SDS011;54698;48.428;9.964;2022-09-03T01:43:30;4.43;;;1.90;;
67896;SDS011;54698;48.428;9.964;2022-09-03T01:46:03;3.63;;;1.55;;
67896;SDS011;54698;48.428;9.964;2022-09-03T01:48:37;5.85;;;2.22;;
67896;SDS011;54698;48.428;9.964;2022-09-03T01:51:15;6.30;;;2.17;;
67896;SDS011;54698;48.428;9.964;2022-09-03T01:53:53;6.05;;;2.08;;
67896;SDS011;54698;48.428;9.964;2022-09-03T01:56:49;5.22;;;2.20;;
67896;SDS011;54698;48.428;9.964;2022-09-03T01:59:40;5.35;;;2.08;;
67896;SDS011;54698;48.428;9.964;2022-09-03T02:02:13;5.53;;;2.10;;
67896;SDS011;54698;48.428;9.964;2022-09-03T02:04:52;5.00;;;2.33;;
67896;SDS011;54698;48.428;9.964;2022-09-03T02:07:24;5.57;;;1.88;;
67896;SDS011;54698;48.428;9.964;2022-09-03T02:09:55;5.88;;;1.90;;
67896;SDS011;54698;48.428;9.964;2022-09-03T02:12:21;4.90;;;2.40;;
67896;SDS011;54698;48.428;9.964;2022-09-03T02:14:48;5.45;;;2.58;;
67896;SDS011;54698;48.428;9.964;2022-09-03T02:17:14;4.43;;;2.15;;
67896;SDS011;54698;48.428;9.964;2022-09-03T02:19:40;4.75;;;2.05;;
67896;SDS011;54698;48.428;9.964;2022-09-03T02:22:06;5.18;;;1.90;;
67896;SDS011;54698;48.428;9.964;2022-09-03T02:24:32;7.05;;;1.85;;
67896;SDS011;54698;48.428;9.964;2022-09-03T02:26:57;6.70;;;2.45;;
67896;SDS011;54698;48.428;9.964;2022-09-03T02:29:23;6.18;;;2.35;;
67896;SDS011;54698;48.428;9.964;2022-09-03T02:31:51;6.63;;;2.30;;
67896;SDS011;54698;48.428;9.964;2022-09-03T02:34:17;5.15;;;2.05;;
67896;SDS011;54698;48.428;9.964;2022-09-03T02:36:43;4.78;;;2.05;;
67896;SDS011;54698;48.428;9.964;2022-09-03T02:39:11;4.38;;;2.33;;
67896;SDS011;54698;48.428;9.964;2022-09-03T02:41:37;4.70;;;1.80;;
67896;SDS011;54698;48.428;9.964;2022-09-03T02:44:05;5.50;;;2.28;;
67896;SDS011;54698;48.428;9.964;2022-09-03T02:49:05;6.82;;;2.15;;
67896;SDS011;54698;48.428;9.964;2022-09-03T02:51:32;4.03;;;1.60;;
67896;SDS011;54698;48.428;9.964;2022-09-03T02:53:59;5.93;;;2.45;;
67896;SDS011;54698;48.428;9.964;2022-09-03T02:56:25;5.65;;;2.22;;
67896;SDS011;54698;48.428;9.964;2022-09-03T02:58:50;4.72;;;2.05;;
67896;SDS011;54698;48.428;9.964;2022-09-03T03:01:16;4.53;;;2.00;;
67896;SDS011;54698;48.428;9.964;2022-09-03T03:03:42;3.80;;;1.92;;
67896;SDS011;54698;48.428;9.964;2022-09-03T03:06:09;5.55;;;2.10;;
67896;SDS011;54698;48.428;9.964;2022-09-03T03:08:36;3.70;;;1.92;;
67896;SDS011;54698;48.428;9.964;2022-09-03T03:11:02;4.97;;;1.80;;
67896;SDS011;54698;48.428;9.964;2022-09-03T03:13:29;5.82;;;1.85;;
67896;SDS011;54698;48.428;9.964;2022-09-03T03:15:55;5.90;;;1.85;;
67896;SDS011;54698;48.428;9.964;2022-09-03T03:18:22;6.28;;;1.92;;
67896;SDS011;54698;48.428;9.964;2022-09-03T03:20:48;4.90;;;2.22;;
67896;SDS011;54698;48.428;9.964;2022-09-03T03:23:15;4.75;;;2.05;;
67896;SDS011;54698;48.428;9.964;2022-09-03T03:25:41;5.57;;;2.13;;
67896;SDS011;54698;48.428;9.964;2022-09-03T03:28:07;5.85;;;2.10;;
67896;SDS011;54698;48.428;9.964;2022-09-03T03:30:35;7.35;;;2.70;;
67896;SDS011;54698;48.428;9.964;2022-09-03T03:33:02;5.05;;;1.63;;
67896;SDS011;54698;48.428;9.964;2022-09-03T03:35:28;5.18;;;1.95;;
67896;SDS011;54698;48.428;9.964;2022-09-03T03:37:56;5.85;;;1.73;;
67896;SDS011;54698;48.428;9.964;2022-09-03T03:40:23;4.20;;;1.98;;
67896;SDS011;54698;48.428;9.964;2022-09-03T03:42:49;5.07;;;2.40;;
67896;SDS011;54698;48.428;9.964;2022-09-03T03:45:16;3.85;;;1.60;;
67896;SDS011;54698;48.428;9.964;2022-09-03T03:47:42;5.38;;;2.05;;
67896;SDS011;54698;48.428;9.964;2022-09-03T03:50:08;4.22;;;1.80;;
67896;SDS011;54698;48.428;9.964;2022-09-03T03:52:34;5.85;;;1.92;;
67896;SDS011;54698;48.428;9.964;2022-09-03T03:54:59;4.25;;;1.90;;
67896;SDS011;54698;48.428;9.964;2022-09-03T03:57:28;4.60;;;2.20;;
67896;SDS011;54698;48.428;9.964;2022-09-03T03:59:55;5.82;;;2.25;;
67896;SDS011;54698;48.428;9.964;2022-09-03T04:02:21;5.90;;;2.70;;
67896;SDS011;54698;48.428;9.964;2022-09-03T04:04:46;5.22;;;2.00;;
67896;SDS011;54698;48.428;9.964;2022-09-03T04:07:12;5.20;;;2.17;;
67896;SDS011;54698;48.428;9.964;2022-09-03T04:09:38;5.35;;;1.92;;
67896;SDS011;54698;48.428;9.964;2022-09-03T04:12:04;5.45;;;2.00;;
67896;SDS011;54698;48.428;9.964;2022-09-03T04:14:32;4.70;;;2.20;;
67896;SDS011;54698;48.428;9.964;2022-09-03T04:16:58;7.13;;;2.10;;
67896;SDS011;54698;48.428;9.964;2022-09-03T04:19:24;5.10;;;1.75;;
67896;SDS011;54698;48.428;9.964;2022-09-03T04:21:49;5.22;;;2.22;;
67896;SDS011;54698;48.428;9.964;2022-09-03T04:24:15;4.32;;;1.80;;
67896;SDS011;54698;48.428;9.964;2022-09-03T04:26:41;4.10;;;1.85;;
67896;SDS011;54698;48.428;9.964;2022-09-03T04:29:07;7.43;;;2.10;;
67896;SDS011;54698;48.428;9.964;2022-09-03T04:31:36;4.75;;;2.17;;
67896;SDS011;54698;48.428;9.964;2022-09-03T04:34:03;5.13;;;2.95;;
67896;SDS011;54698;48.428;9.964;2022-09-03T04:36:29;4.97;;;2.10;;
67896;SDS011;54698;48.428;9.964;2022-09-03T04:38:57;4.70;;;2.50;;
67896;SDS011;54698;48.428;9.964;2022-09-03T04:41:25;6.53;;;2.20;;
67896;SDS011;54698;48.428;9.964;2022-09-03T04:43:53;5.45;;;2.55;;
67896;SDS011;54698;48.428;9.964;2022-09-03T04:46:21;5.68;;;1.90;;
67896;SDS011;54698;48.428;9.964;2022-09-03T04:48:51;5.22;;;2.20;;
67896;SDS011;54698;48.428;9.964;2022-09-03T04:51:19;5.13;;;2.25;;
67896;SDS011;54698;48.428;9.964;2022-09-03T04:53:47;6.50;;;2.60;;
67896;SDS011;54698;48.428;9.964;2022-09-03T04:56:20;5.32;;;2.47;;
67896;SDS011;54698;48.428;9.964;2022-09-03T04:58:48;7.55;;;2.55;;
67896;SDS011;54698;48.428;9.964;2022-09-03T05:01:20;5.20;;;2.40;;
67896;SDS011;54698;48.428;9.964;2022-09-03T05:03:50;5.57;;;2.30;;
67896;SDS011;54698;48.428;9.964;2022-09-03T05:06:16;6.68;;;2.60;;
67896;SDS011;54698;48.428;9.964;2022-09-03T05:08:42;6.25;;;2.95;;
67896;SDS011;54698;48.428;9.964;2022-09-03T05:11:11;5.90;;;3.05;;
67896;SDS011;54698;48.428;9.964;2022-09-03T05:13:37;5.68;;;2.50;;
67896;SDS011;54698;48.428;9.964;2022-09-03T05:16:04;5.88;;;3.03;;
67896;SDS011;54698;48.428;9.964;2022-09-03T05:18:31;5.05;;;2.53;;
67896;SDS011;54698;48.428;9.964;2022-09-03T05:20:59;6.57;;;2.92;;
67896;SDS011;54698;48.428;9.964;2022-09-03T05:23:27;6.45;;;2.83;;
67896;SDS011;54698;48.428;9.964;2022-09-03T05:25:54;4.85;;;2.47;;
67896;SDS011;54698;48.428;9.964;2022-09-03T05:28:20;6.70;;;2.58;;
67896;SDS011;54698;48.428;9.964;2022-09-03T05:30:46;6.82;;;2.50;;
67896;SDS011;54698;48.428;9.964;2022-09-03T05:33:22;5.72;;;2.50;;
67896;SDS011;54698;48.428;9.964;2022-09-03T05:35:48;6.75;;;3.00;;
67896;SDS011;54698;48.428;9.964;2022-09-03T05:38:15;5.57;;;2.80;;
67896;SDS011;54698;48.428;9.964;2022-09-03T05:40:41;5.43;;;2.03;;
67896;SDS011;54698;48.428;9.964;2022-09-03T05:43:07;5.57;;;2.80;;
67896;SDS011;54698;48.428;9.964;2022-09-03T05:45:32;6.82;;;3.13;;
67896;SDS011;54698;48.428;9.964;2022-09-03T05:47:58;4.82;;;2.60;;
67896;SDS011;54698;48.428;9.964;2022-09-03T05:50:24;5.75;;;2.67;;
67896;SDS011;54698;48.428;9.964;2022-09-03T05:52:50;7.20;;;2.78;;
67896;SDS011;54698;48.428;9.964;2022-09-03T05:55:17;4.47;;;2.10;;
67896;SDS011;54698;48.428;9.964;2022-09-03T05:57:43;6.43;;;3.15;;
67896;SDS011;54698;48.428;9.964;2022-09-03T06:00:09;6.28;;;3.05;;
67896;SDS011;54698;48.428;9.964;2022-09-03T06:02:36;5.05;;;2.45;;
67896;SDS011;54698;48.428;9.964;2022-09-03T06:05:02;4.75;;;2.55;;
67896;SDS011;54698;48.428;9.964;2022-09-03T06:07:28;10.52;;;2.95;;
67896;SDS011;54698;48.428;9.964;2022-09-03T06:09:54;5.18;;;2.47;;
67896;SDS011;54698;48.428;9.964;2022-09-03T06:12:21;5.65;;;2.70;;
67896;SDS011;54698;48.428;9.964;2022-09-03T06:14:47;5.57;;;2.78;;
67896;SDS011;54698;48.428;9.964;2022-09-03T06:17:13;7.78;;;3.05;;
67896;SDS011;54698;48.428;9.964;2022-09-03T06:19:39;6.13;;;2.38;;
67896;SDS011;54698;48.428;9.964;2022-09-03T06:22:04;6.85;;;3.40;;
67896;SDS011;54698;48.428;9.964;2022-09-03T06:24:30;5.70;;;3.25;;
67896;SDS011;54698;48.428;9.964;2022-09-03T06:26:56;9.15;;;3.40;;
67896;SDS011;54698;48.428;9.964;2022-09-03T06:29:23;5.97;;;2.85;;
67896;SDS011;54698;48.428;9.964;2022-09-03T06:31:49;4.90;;;2.63;;
67896;SDS011;54698;48.428;9.964;2022-09-03T06:34:15;5.05;;;2.75;;
67896;SDS011;54698;48.428;9.964;2022-09-03T06:36:41;5.55;;;2.80;;
67896;SDS011;54698;48.428;9.964;2022-09-03T06:39:07;5.82;;;3.03;;
67896;SDS011;54698;48.428;9.964;2022-09-03T06:41:33;7.03;;;3.03;;
67896;SDS011;54698;48.428;9.964;2022-09-03T06:43:59;6.88;;;3.30;;
67896;SDS011;54698;48.428;9.964;2022-09-03T06:46:30;5.70;;;2.83;;
67896;SDS011;54698;48.428;9.964;2022-09-03T06:48:57;5.82;;;2.90;;
67896;SDS011;54698;48.428;9.964;2022-09-03T06:51:24;6.97;;;2.90;;
67896;SDS011;54698;48.428;9.964;2022-09-03T06:53:52;6.07;;;2.78;;
67896;SDS011;54698;48.428;9.964;2022-09-03T06:56:23;5.57;;;2.50;;
67896;SDS011;54698;48.428;9.964;2022-09-03T06:58:49;5.25;;;2.85;;
67896;SDS011;54698;48.428;9.964;2022-09-03T07:01:16;5.10;;;2.72;;
67896;SDS011;54698;48.428;9.964;2022-09-03T07:03:46;5.60;;;2.97;;
67896;SDS011;54698;48.428;9.964;2022-09-03T07:06:17;7.03;;;3.58;;
67896;SDS011;54698;48.428;9.964;2022-09-03T07:08:44;5.82;;;2.85;;
67896;SDS011;54698;48.428;9.964;2022-09-03T07:11:11;8.77;;;2.70;;
67896;SDS011;54698;48.428;9.964;2022-09-03T07:13:38;6.47;;;2.80;;
67896;SDS011;54698;48.428;9.964;2022-09-03T07:16:08;8.63;;;4.00;;
67896;SDS011;54698;48.428;9.964;2022-09-03T07:18:36;11.20;;;4.47;;
67896;SDS011;54698;48.428;9.964;2022-09-03T07:21:05;9.80;;;3.53;;
67896;SDS011;54698;48.428;9.964;2022-09-03T07:23:33;7.93;;;3.40;;
67896;SDS011;54698;48.428;9.964;2022-09-03T07:26:03;7.93;;;4.28;;
67896;SDS011;54698;48.428;9.964;2022-09-03T07:28:31;11.57;;;3.67;;
67896;SDS011;54698;48.428;9.964;2022-09-03T07:31:01;6.90;;;4.03;;
67896;SDS011;54698;48.428;9.964;2022-09-03T07:33:29;7.07;;;3.58;;
67896;SDS011;54698;48.428;9.964;2022-09-03T07:36:00;6.47;;;3.58;;
67896;SDS011;54698;48.428;9.964;2022-09-03T07:40:56;6.43;;;3.00;;
67896;SDS011;54698;48.428;9.964;2022-09-03T07:43:22;5.45;;;3.08;;
67896;SDS011;54698;48.428;9.964;2022-09-03T07:45:49;7.40;;;3.75;;
67896;SDS011;54698;48.428;9.964;2022-09-03T07:48:14;6.53;;;3.63;;
67896;SDS011;54698;48.428;9.964;2022-09-03T07:50:41;7.03;;;3.53;;
67896;SDS011;54698;48.428;9.964;2022-09-03T07:53:10;6.00;;;3.63;;
67896;SDS011;54698;48.428;9.964;2022-09-03T07:55:35;9.30;;;4.38;;
67896;SDS011;54698;48.428;9.964;2022-09-03T07:58:01;7.00;;;3.58;;
67896;SDS011;54698;48.428;9.964;2022-09-03T08:00:27;7.50;;;3.40;;
67896;SDS011;54698;48.428;9.964;2022-09-03T08:02:53;6.38;;;3.72;;
67896;SDS011;54698;48.428;9.964;2022-09-03T08:05:19;6.93;;;3.78;;
67896;SDS011;54698;48.428;9.964;2022-09-03T08:07:45;7.15;;;4.00;;
67896;SDS011;54698;48.428;9.964;2022-09-03T08:10:12;7.53;;;3.90;;
67896;SDS011;54698;48.428;9.964;2022-09-03T08:12:38;6.07;;;3.38;;
67896;SDS011;54698;48.428;9.964;2022-09-03T08:15:04;6.43;;;3.33;;
67896;SDS011;54698;48.428;9.964;2022-09-03T08:17:31;8.60;;;4.22;;
67896;SDS011;54698;48.428;9.964;2022-09-03T08:19:57;7.70;;;3.90;;
67896;SDS011;54698;48.428;9.964;2022-09-03T08:22:24;7.82;;;4.07;;
67896;SDS011;54698;48.428;9.964;2022-09-03T08:24:50;7.28;;;3.55;;
67896;SDS011;54698;48.428;9.964;2022-09-03T08:27:17;6.30;;;3.17;;
67896;SDS011;54698;48.428;9.964;2022-09-03T08:29:43;8.77;;;3.10;;
67896;SDS011;54698;48.428;9.964;2022-09-03T08:32:09;6.47;;;3.10;;
67896;SDS011;54698;48.428;9.964;2022-09-03T08:34:34;6.20;;;3.08;;
67896;SDS011;54698;48.428;9.964;2022-09-03T08:37:00;8.15;;;3.65;;
67896;SDS011;54698;48.428;9.964;2022-09-03T08:39:26;7.00;;;3.58;;
67896;SDS011;54698;48.428;9.964;2022-09-03T08:42:03;8.40;;;3.05;;
67896;SDS011;54698;48.428;9.964;2022-09-03T08:44:49;7.18;;;3.33;;
67896;SDS011;54698;48.428;9.964;2022-09-03T08:47:19;7.72;;;3.63;;
67896;SDS011;54698;48.428;9.964;2022-09-03T08:49:51;8.88;;;3.70;;
67896;SDS011;54698;48.428;9.964;2022-09-03T08:52:25;6.65;;;3.42;;
67896;SDS011;54698;48.428;9.964;2022-09-03T08:54:57;7.28;;;3.53;;
67896;SDS011;54698;48.428;9.964;2022-09-03T08:57:35;6.40;;;3.40;;
67896;SDS011;54698;48.428;9.964;2022-09-03T09:00:08;6.25;;;3.10;;
67896;SDS011;54698;48.428;9.964;2022-09-03T09:02:37;5.55;;;3.13;;
67896;SDS011;54698;48.428;9.964;2022-09-03T09:05:23;9.35;;;4.07;;
67896;SDS011;54698;48.428;9.964;2022-09-03T09:07:59;6.80;;;3.50;;
67896;SDS011;54698;48.428;9.964;2022-09-03T09:10:36;10.52;;;4.35;;
67896;SDS011;54698;48.428;9.964;2022-09-03T09:13:12;7.95;;;3.83;;
67896;SDS011;54698;48.428;9.964;2022-09-03T09:15:49;7.65;;;3.60;;
67896;SDS011;54698;48.428;9.964;2022-09-03T09:18:26;8.95;;;4.07;;
67896;SDS011;54698;48.428;9.964;2022-09-03T09:21:07;8.75;;;3.90;;
67896;SDS011;54698;48.428;9.964;2022-09-03T09:23:38;6.07;;;3.13;;
67896;SDS011;54698;48.428;9.964;2022-09-03T09:26:09;9.05;;;3.05;;
67896;SDS011;54698;48.428;9.964;2022-09-03T09:28:40;6.45;;;4.00;;
67896;SDS011;54698;48.428;9.964;2022-09-03T09:31:10;5.93;;;3.22;;
67896;SDS011;54698;48.428;9.964;2022-09-03T09:33:39;6.32;;;2.75;;
67896;SDS011;54698;48.428;9.964;2022-09-03T09:36:06;6.80;;;3.22;;
67896;SDS011;54698;48.428;9.964;2022-09-03T09:38:35;5.35;;;2.83;;
67896;SDS011;54698;48.428;9.964;2022-09-03T09:41:09;6.22;;;2.92;;
67896;SDS011;54698;48.428;9.964;2022-09-03T09:43:37;7.63;;;3.13;;
67896;SDS011;54698;48.428;9.964;2022-09-03T09:46:08;5.80;;;3.03;;
67896;SDS011;54698;48.428;9.964;2022-09-03T09:48:42;5.10;;;2.22;;
67896;SDS011;54698;48.428;9.964;2022-09-03T09:51:17;10.23;;;2.65;;
67896;SDS011;54698;48.428;9.964;2022-09-03T09:53:45;5.82;;;2.78;;
67896;SDS011;54698;48.428;9.964;2022-09-03T09:56:19;8.45;;;3.20;;
67896;SDS011;54698;48.428;9.964;2022-09-03T09:58:46;5.75;;;2.83;;
67896;SDS011;54698;48.428;9.964;2022-09-03T10:01:16;9.00;;;3.78;;
67896;SDS011;54698;48.428;9.964;2022-09-03T10:03:47;9.27;;;2.80;;
67896;SDS011;54698;48.428;9.964;2022-09-03T10:06:16;7.65;;;2.60;;
67896;SDS011;54698;48.428;9.964;2022-09-03T10:08:42;5.07;;;2.35;;
67896;SDS011;54698;48.428;9.964;2022-09-03T10:11:08;7.10;;;2.80;;
67896;SDS011;54698;48.428;9.964;2022-09-03T10:13:35;6.75;;;2.72;;
67896;SDS011;54698;48.428;9.964;2022-09-03T10:16:09;5.60;;;3.10;;
67896;SDS011;54698;48.428;9.964;2022-09-03T10:18:48;6.72;;;2.78;;
67896;SDS011;54698;48.428;9.964;2022-09-03T10:21:23;6.53;;;2.35;;
67896;SDS011;54698;48.428;9.964;2022-09-03T10:23:56;4.40;;;2.10;;
67896;SDS011;54698;48.428;9.964;2022-09-03T10:28:55;8.80;;;2.45;;
67896;SDS011;54698;48.428;9.964;2022-09-03T10:31:31;5.78;;;2.17;;
67896;SDS011;54698;48.428;9.964;2022-09-03T10:34:08;5.82;;;2.85;;
67896;SDS011;54698;48.428;9.964;2022-09-03T10:36:42;5.15;;;2.53;;
67896;SDS011;54698;48.428;9.964;2022-09-03T10:39:19;5.55;;;2.75;;
67896;SDS011;54698;48.428;9.964;2022-09-03T10:41:53;5.13;;;2.30;;
67896;SDS011;54698;48.428;9.964;2022-09-03T10:44:37;6.03;;;2.33;;
67896;SDS011;54698;48.428;9.964;2022-09-03T10:47:21;5.63;;;2.33;;
67896;SDS011;54698;48.428;9.964;2022-09-03T10:50:02;5.85;;;2.60;;
67896;SDS011;54698;48.428;9.964;2022-09-03T10:52:39;5.45;;;2.53;;
67896;SDS011;54698;48.428;9.964;2022-09-03T10:55:24;5.35;;;2.28;;
67896;SDS011;54698;48.428;9.964;2022-09-03T10:58:06;5.88;;;2.78;;
67896;SDS011;54698;48.428;9.964;2022-09-03T11:00:51;5.30;;;2.38;;
67896;SDS011;54698;48.428;9.964;2022-09-03T11:03:29;6.13;;;2.33;;
67896;SDS011;54698;48.428;9.964;2022-09-03T11:06:08;9.25;;;2.30;;
67896;SDS011;54698;48.428;9.964;2022-09-03T11:08:40;5.20;;;1.90;;
67896;SDS011;54698;48.428;9.964;2022-09-03T11:11:13;5.40;;;2.67;;
67896;SDS011;54698;48.428;9.964;2022-09-03T11:13:46;5.80;;;2.20;;
67896;SDS011;54698;48.428;9.964;2022-09-03T11:16:16;7.13;;;1.70;;
67896;SDS011;54698;48.428;9.964;2022-09-03T11:18:50;4.82;;;1.77;;
67896;SDS011;54698;48.428;9.964;2022-09-03T11:21:21;5.38;;;1.88;;
67896;SDS011;54698;48.428;9.964;2022-09-03T11:23:50;4.70;;;1.98;;
67896;SDS011;54698;48.428;9.964;2022-09-03T11:26:31;3.38;;;1.30;;
67896;SDS011;54698;48.428;9.964;2022-09-03T11:28:58;3.42;;;1.20;;
67896;SDS011;54698;48.428;9.964;2022-09-03T11:31:32;3.92;;;1.63;;
67896;SDS011;54698;48.428;9.964;2022-09-03T11:34:26;6.55;;;1.30;;
67896;SDS011;54698;48.428;9.964;2022-09-03T11:37:06;4.28;;;1.35;;
67896;SDS011;54698;48.428;9.964;2022-09-03T11:39:41;2.25;;;0.90;;
67896;SDS011;54698;48.428;9.964;2022-09-03T11:42:08;3.53;;;1.40;;
67896;SDS011;54698;48.428;9.964;2022-09-03T11:44:37;4.25;;;1.45;;
67896;SDS011;54698;48.428;9.964;2022-09-03T11:47:12;3.22;;;1.25;;
67896;SDS011;54698;48.428;9.964;2022-09-03T11:49:44;3.97;;;1.35;;
67896;SDS011;54698;48.428;9.964;2022-09-03T11:52:13;3.28;;;1.58;;
67896;SDS011;54698;48.428;9.964;2022-09-03T11:54:50;3.63;;;1.42;;
67896;SDS011;54698;48.428;9.964;2022-09-03T11:57:22;4.28;;;1.35;;
67896;SDS011;54698;48.428;9.964;2022-09-03T11:59:52;5.35;;;1.58;;
67896;SDS011;54698;48.428;9.964;2022-09-03T12:02:22;6.55;;;1.92;;
67896;SDS011;54698;48.428;9.964;2022-09-03T12:04:55;3.03;;;1.38;;
67896;SDS011;54698;48.428;9.964;2022-09-03T12:07:44;3.60;;;1.40;;
67896;SDS011;54698;48.428;9.964;2022-09-03T12:10:26;3.33;;;1.52;;
67896;SDS011;54698;48.428;9.964;2022-09-03T12:13:04;3.42;;;1.48;;
67896;SDS011;54698;48.428;9.964;2022-09-03T12:15:52;3.10;;;1.20;;
67896;SDS011;54698;48.428;9.964;2022-09-03T12:18:34;3.92;;;1.48;;
67896;SDS011;54698;48.428;9.964;2022-09-03T12:21:04;5.80;;;1.63;;
67896;SDS011;54698;48.428;9.964;2022-09-03T12:23:33;4.88;;;1.30;;
67896;SDS011;54698;48.428;9.964;2022-09-03T12:26:05;3.42;;;1.30;;
67896;SDS011;54698;48.428;9.964;2022-09-03T12:28:36;3.65;;;1.40;;
67896;SDS011;54698;48.428;9.964;2022-09-03T12:31:07;4.55;;;1.40;;
67896;SDS011;54698;48.428;9.964;2022-09-03T12:33:39;2.58;;;1.05;;
67896;SDS011;54698;48.428;9.964;2022-09-03T12:36:08;4.38;;;1.45;;
67896;SDS011;54698;48.428;9.964;2022-09-03T12:38:34;3.95;;;1.50;;
67896;SDS011;54698;48.428;9.964;2022-09-03T12:41:00;3.45;;;1.17;;
67896;SDS011;54698;48.428;9.964;2022-09-03T12:43:26;4.05;;;1.58;;
67896;SDS011;54698;48.428;9.964;2022-09-03T12:45:53;3.85;;;1.13;;
67896;SDS011;54698;48.428;9.964;2022-09-03T12:48:19;3.47;;;1.55;;
67896;SDS011;54698;48.428;9.964;2022-09-03T12:50:47;5.57;;;1.42;;
67896;SDS011;54698;48.428;9.964;2022-09-03T12:53:25;3.53;;;1.48;;
67896;SDS011;54698;48.428;9.964;2022-09-03T12:55:55;4.97;;;1.80;;
67896;SDS011;54698;48.428;9.964;2022-09-03T12:58:23;4.20;;;1.20;;
67896;SDS011;54698;48.428;9.964;2022-09-03T13:00:51;3.78;;;1.45;;
67896;SDS011;54698;48.428;9.964;2022-09-03T13:03:25;3.70;;;1.17;;
67896;SDS011;54698;48.428;9.964;2022-09-03T13:05:56;3.08;;;0.93;;
67896;SDS011;54698;48.428;9.964;2022-09-03T13:08:28;4.18;;;1.20;;
67896;SDS011;54698;48.428;9.964;2022-09-03T13:10:58;2.22;;;0.90;;
67896;SDS011;54698;48.428;9.964;2022-09-03T13:13:27;4.57;;;0.90;;
67896;SDS011;54698;48.428;9.964;2022-09-03T13:18:54;2.40;;;0.73;;
67896;SDS011;54698;48.428;9.964;2022-09-03T13:21:31;4.68;;;0.80;;
67896;SDS011;54698;48.428;9.964;2022-09-03T13:24:12;1.75;;;0.75;;
67896;SDS011;54698;48.428;9.964;2022-09-03T13:27:06;4.25;;;0.77;;
67896;SDS011;54698;48.428;9.964;2022-09-03T13:29:44;1.67;;;0.70;;
67896;SDS011;54698;48.428;9.964;2022-09-03T13:32:29;2.85;;;0.73;;
67896;SDS011;54698;48.428;9.964;2022-09-03T13:35:05;3.03;;;0.70;;
67896;SDS011;54698;48.428;9.964;2022-09-03T13:40:10;2.90;;;0.80;;
67896;SDS011;54698;48.428;9.964;2022-09-03T13:42:43;2.00;;;0.63;;
67896;SDS011;54698;48.428;9.964;2022-09-03T13:45:19;2.17;;;1.20;;
67896;SDS011;54698;48.428;9.964;2022-09-03T13:47:55;2.05;;;0.70;;
67896;SDS011;54698;48.428;9.964;2022-09-03T13:50:27;1.58;;;0.70;;
67896;SDS011;54698;48.428;9.964;2022-09-03T13:52:56;1.58;;;0.77;;
67896;SDS011;54698;48.428;9.964;2022-09-03T13:55:30;2.85;;;0.68;;
67896;SDS011;54698;48.428;9.964;2022-09-03T13:58:02;3.15;;;1.13;;
67896;SDS011;54698;48.428;9.964;2022-09-03T14:00:36;2.20;;;0.93;;
67896;SDS011;54698;48.428;9.964;2022-09-03T14:03:09;5.63;;;1.17;;
67896;SDS011;54698;48.428;9.964;2022-09-03T14:05:46;2.08;;;0.70;;
67896;SDS011;54698;48.428;9.964;2022-09-03T14:08:27;2.10;;;1.07;;
67896;SDS011;54698;48.428;9.964;2022-09-03T14:11:04;2.60;;;0.75;;
67896;SDS011;54698;48.428;9.964;2022-09-03T14:13:47;3.17;;;0.65;;
67896;SDS011;54698;48.428;9.964;2022-09-03T14:16:28;1.63;;;0.82;;
67896;SDS011;54698;48.428;9.964;2022-09-03T14:19:02;1.23;;;0.50;;
67896;SDS011;54698;48.428;9.964;2022-09-03T14:21:35;2.47;;;0.70;;
67896;SDS011;54698;48.428;9.964;2022-09-03T14:24:09;2.33;;;0.65;;
67896;SDS011;54698;48.428;9.964;2022-09-03T14:26:51;1.35;;;0.50;;
67896;SDS011;54698;48.428;9.964;2022-09-03T14:29:22;1.55;;;0.50;;
67896;SDS011;54698;48.428;9.964;2022-09-03T14:34:55;1.85;;;0.60;;
67896;SDS011;54698;48.428;9.964;2022-09-03T14:37:58;2.15;;;0.70;;
67896;SDS011;54698;48.428;9.964;2022-09-03T14:41:02;1.58;;;0.65;;
67896;SDS011;54698;48.428;9.964;2022-09-03T14:46:17;3.28;;;0.73;;
67896;SDS011;54698;48.428;9.964;2022-09-03T14:49:01;3.17;;;0.65;;
67896;SDS011;54698;48.428;9.964;2022-09-03T14:51:46;1.83;;;0.75;;
67896;SDS011;54698;48.428;9.964;2022-09-03T14:54:40;1.80;;;0.65;;
67896;SDS011;54698;48.428;9.964;2022-09-03T14:57:27;1.85;;;0.70;;
67896;SDS011;54698;48.428;9.964;2022-09-03T15:00:12;4.80;;;0.90;;
67896;SDS011;54698;48.428;9.964;2022-09-03T15:02:48;2.47;;;1.25;;
67896;SDS011;54698;48.428;9.964;2022-09-03T15:05:37;3.70;;;1.52;;
67896;SDS011;54698;48.428;9.964;2022-09-03T15:08:13;2.42;;;0.75;;
67896;SDS011;54698;48.428;9.964;2022-09-03T15:10:53;1.88;;;0.68;;
67896;SDS011;54698;48.428;9.964;2022-09-03T15:13:24;2.95;;;0.90;;
67896;SDS011;54698;48.428;9.964;2022-09-03T15:16:02;1.38;;;0.60;;
67896;SDS011;54698;48.428;9.964;2022-09-03T15:18:42;2.47;;;1.10;;
67896;SDS011;54698;48.428;9.964;2022-09-03T15:21:23;2.05;;;0.70;;
67896;SDS011;54698;48.428;9.964;2022-09-03T15:24:05;1.60;;;0.60;;
67896;SDS011;54698;48.428;9.964;2022-09-03T15:26:46;2.38;;;0.70;;
67896;SDS011;54698;48.428;9.964;2022-09-03T15:32:35;2.15;;;0.70;;
67896;SDS011;54698;48.428;9.964;2022-09-03T15:35:15;2.25;;;0.88;;
67896;SDS011;54698;48.428;9.964;2022-09-03T15:37:57;1.90;;;0.73;;
67896;SDS011;54698;48.428;9.964;2022-09-03T15:40:28;1.80;;;0.70;;